Endwell, New York
Current Conditions -  °F | °C
As of 6:53 AM on Monday 24 Nov 2014 (Local Time) from KBGM Reporting Station
Overcast Overcast  
Wind Chill: 57°   Ceiling: 1300
Heat Index: 57°   Visibility: 10mi
Dew Point: 54°   Wind: 14mph
Humidity: 89%   Direction: 180°S
Pressure: 29.51"   Gusts: 26mph
Location:  42.11°N, 76.03°W
Report Text: KBGM 241153Z 18012G23KT 10SM BKN013 OVC021 14/12 A2951 RMK AO2 SLP994 60026 70028 T01390122 10139 20078 58012
Loading
Personal Weather Stations






























Interactive Weather Map New forecast layout! Learn more

10-Day Weather Forecast

Advertisements
Track Severe Weather on mobile